sensor_id;sensor_type;location;lat;lon;timestamp;P1;durP1;ratioP1;P2;durP2;ratioP2
22967;SDS011;11650;48.106;-1.696;2022-10-17T00:00:14;15.53;;;6.57;;
22967;SDS011;11650;48.106;-1.696;2022-10-17T00:02:39;14.80;;;6.73;;
22967;SDS011;11650;48.106;-1.696;2022-10-17T00:05:05;16.83;;;7.53;;
22967;SDS011;11650;48.106;-1.696;2022-10-17T00:07:31;17.93;;;7.07;;
22967;SDS011;11650;48.106;-1.696;2022-10-17T00:09:56;12.60;;;7.03;;
22967;SDS011;11650;48.106;-1.696;2022-10-17T00:12:22;16.33;;;7.17;;
22967;SDS011;11650;48.106;-1.696;2022-10-17T00:14:47;13.90;;;7.20;;
22967;SDS011;11650;48.106;-1.696;2022-10-17T00:17:13;20.27;;;7.67;;
22967;SDS011;11650;48.106;-1.696;2022-10-17T00:19:39;18.87;;;7.97;;
22967;SDS011;11650;48.106;-1.696;2022-10-17T00:22:05;16.30;;;7.40;;
22967;SDS011;11650;48.106;-1.696;2022-10-17T00:24:31;22.37;;;7.90;;
22967;SDS011;11650;48.106;-1.696;2022-10-17T00:26:56;16.00;;;7.47;;
22967;SDS011;11650;48.106;-1.696;2022-10-17T00:29:22;16.83;;;7.10;;
22967;SDS011;11650;48.106;-1.696;2022-10-17T00:31:47;22.17;;;7.40;;
22967;SDS011;11650;48.106;-1.696;2022-10-17T00:34:13;19.77;;;7.33;;
22967;SDS011;11650;48.106;-1.696;2022-10-17T00:36:39;13.93;;;7.40;;
22967;SDS011;11650;48.106;-1.696;2022-10-17T00:39:04;19.20;;;7.40;;
22967;SDS011;11650;48.106;-1.696;2022-10-17T00:41:31;14.27;;;7.37;;
22967;SDS011;11650;48.106;-1.696;2022-10-17T00:46:45;17.23;;;7.00;;
22967;SDS011;11650;48.106;-1.696;2022-10-17T00:49:10;15.57;;;7.60;;
22967;SDS011;11650;48.106;-1.696;2022-10-17T00:51:44;14.50;;;6.50;;
22967;SDS011;11650;48.106;-1.696;2022-10-17T00:54:11;12.10;;;6.60;;
22967;SDS011;11650;48.106;-1.696;2022-10-17T00:56:38;17.63;;;6.60;;
22967;SDS011;11650;48.106;-1.696;2022-10-17T00:59:06;16.40;;;7.17;;
22967;SDS011;11650;48.106;-1.696;2022-10-17T01:01:33;15.07;;;6.50;;
22967;SDS011;11650;48.106;-1.696;2022-10-17T01:03:59;16.70;;;6.27;;
22967;SDS011;11650;48.106;-1.696;2022-10-17T01:06:25;16.17;;;7.00;;
22967;SDS011;11650;48.106;-1.696;2022-10-17T01:08:51;15.50;;;6.53;;
22967;SDS011;11650;48.106;-1.696;2022-10-17T01:11:31;15.27;;;6.20;;
22967;SDS011;11650;48.106;-1.696;2022-10-17T01:16:46;15.73;;;6.27;;
22967;SDS011;11650;48.106;-1.696;2022-10-17T01:19:54;14.27;;;6.40;;
22967;SDS011;11650;48.106;-1.696;2022-10-17T01:23:32;13.33;;;6.50;;
22967;SDS011;11650;48.106;-1.696;2022-10-17T01:31:13;16.97;;;7.10;;
22967;SDS011;11650;48.106;-1.696;2022-10-17T01:36:22;11.83;;;6.40;;
22967;SDS011;11650;48.106;-1.696;2022-10-17T01:39:01;17.43;;;6.83;;
22967;SDS011;11650;48.106;-1.696;2022-10-17T01:41:42;12.27;;;6.17;;
22967;SDS011;11650;48.106;-1.696;2022-10-17T01:47:12;13.10;;;6.50;;
22967;SDS011;11650;48.106;-1.696;2022-10-17T01:49:43;16.40;;;7.20;;
22967;SDS011;11650;48.106;-1.696;2022-10-17T01:52:14;13.67;;;5.97;;
22967;SDS011;11650;48.106;-1.696;2022-10-17T01:54:51;19.47;;;6.80;;
22967;SDS011;11650;48.106;-1.696;2022-10-17T01:57:32;16.30;;;7.20;;
22967;SDS011;11650;48.106;-1.696;2022-10-17T02:00:03;15.10;;;6.90;;
22967;SDS011;11650;48.106;-1.696;2022-10-17T02:02:31;16.20;;;6.80;;
22967;SDS011;11650;48.106;-1.696;2022-10-17T02:04:58;12.23;;;6.20;;
22967;SDS011;11650;48.106;-1.696;2022-10-17T02:07:26;16.20;;;6.60;;
22967;SDS011;11650;48.106;-1.696;2022-10-17T02:09:52;12.63;;;6.37;;
22967;SDS011;11650;48.106;-1.696;2022-10-17T02:12:25;15.90;;;6.80;;
22967;SDS011;11650;48.106;-1.696;2022-10-17T02:18:15;18.57;;;6.20;;
22967;SDS011;11650;48.106;-1.696;2022-10-17T02:21:01;12.73;;;6.17;;
22967;SDS011;11650;48.106;-1.696;2022-10-17T02:23:37;15.00;;;6.07;;
22967;SDS011;11650;48.106;-1.696;2022-10-17T02:26:22;14.07;;;5.80;;
22967;SDS011;11650;48.106;-1.696;2022-10-17T02:31:36;19.10;;;6.33;;
22967;SDS011;11650;48.106;-1.696;2022-10-17T02:34:08;16.17;;;6.20;;
22967;SDS011;11650;48.106;-1.696;2022-10-17T02:36:43;13.07;;;5.60;;
22967;SDS011;11650;48.106;-1.696;2022-10-17T02:39:11;13.80;;;5.90;;
22967;SDS011;11650;48.106;-1.696;2022-10-17T02:41:39;14.53;;;5.77;;
22967;SDS011;11650;48.106;-1.696;2022-10-17T02:44:07;15.73;;;5.87;;
22967;SDS011;11650;48.106;-1.696;2022-10-17T02:46:34;15.37;;;6.17;;
22967;SDS011;11650;48.106;-1.696;2022-10-17T02:49:15;15.17;;;5.87;;
22967;SDS011;11650;48.106;-1.696;2022-10-17T03:00:08;13.50;;;5.90;;
22967;SDS011;11650;48.106;-1.696;2022-10-17T03:02:39;13.93;;;6.07;;
22967;SDS011;11650;48.106;-1.696;2022-10-17T03:05:11;15.03;;;6.67;;
22967;SDS011;11650;48.106;-1.696;2022-10-17T03:07:37;16.80;;;6.07;;
22967;SDS011;11650;48.106;-1.696;2022-10-17T03:10:03;17.10;;;6.10;;
22967;SDS011;11650;48.106;-1.696;2022-10-17T03:12:29;17.30;;;6.07;;
22967;SDS011;11650;48.106;-1.696;2022-10-17T03:14:55;16.47;;;6.20;;
22967;SDS011;11650;48.106;-1.696;2022-10-17T03:17:20;18.10;;;6.47;;
22967;SDS011;11650;48.106;-1.696;2022-10-17T03:19:46;16.53;;;6.13;;
22967;SDS011;11650;48.106;-1.696;2022-10-17T03:22:12;16.73;;;6.73;;
22967;SDS011;11650;48.106;-1.696;2022-10-17T03:24:37;20.47;;;6.87;;
22967;SDS011;11650;48.106;-1.696;2022-10-17T03:27:03;17.40;;;6.33;;
22967;SDS011;11650;48.106;-1.696;2022-10-17T03:29:29;18.67;;;6.63;;
22967;SDS011;11650;48.106;-1.696;2022-10-17T03:31:54;16.60;;;6.17;;
22967;SDS011;11650;48.106;-1.696;2022-10-17T03:34:20;17.60;;;6.43;;
22967;SDS011;11650;48.106;-1.696;2022-10-17T03:36:46;16.37;;;6.80;;
22967;SDS011;11650;48.106;-1.696;2022-10-17T03:39:11;16.23;;;6.13;;
22967;SDS011;11650;48.106;-1.696;2022-10-17T03:41:37;13.73;;;5.80;;
22967;SDS011;11650;48.106;-1.696;2022-10-17T03:44:03;18.87;;;6.20;;
22967;SDS011;11650;48.106;-1.696;2022-10-17T03:46:28;14.53;;;5.77;;
22967;SDS011;11650;48.106;-1.696;2022-10-17T03:48:54;18.20;;;6.10;;
22967;SDS011;11650;48.106;-1.696;2022-10-17T03:51:20;16.63;;;5.83;;
22967;SDS011;11650;48.106;-1.696;2022-10-17T03:53:45;15.83;;;6.27;;
22967;SDS011;11650;48.106;-1.696;2022-10-17T03:56:12;18.40;;;6.30;;
22967;SDS011;11650;48.106;-1.696;2022-10-17T03:58:40;14.63;;;5.73;;
22967;SDS011;11650;48.106;-1.696;2022-10-17T04:01:07;14.13;;;5.60;;
22967;SDS011;11650;48.106;-1.696;2022-10-17T04:03:34;17.30;;;5.60;;
22967;SDS011;11650;48.106;-1.696;2022-10-17T04:06:01;18.30;;;6.47;;
22967;SDS011;11650;48.106;-1.696;2022-10-17T04:08:28;15.67;;;5.90;;
22967;SDS011;11650;48.106;-1.696;2022-10-17T04:10:57;16.80;;;5.60;;
22967;SDS011;11650;48.106;-1.696;2022-10-17T04:13:24;15.77;;;5.77;;
22967;SDS011;11650;48.106;-1.696;2022-10-17T04:16:23;16.30;;;5.40;;
22967;SDS011;11650;48.106;-1.696;2022-10-17T04:18:42;19.03;;;5.63;;
22967;SDS011;11650;48.106;-1.696;2022-10-17T04:21:08;17.77;;;5.70;;
22967;SDS011;11650;48.106;-1.696;2022-10-17T04:23:34;14.20;;;5.73;;
22967;SDS011;11650;48.106;-1.696;2022-10-17T04:26:00;18.93;;;5.43;;
22967;SDS011;11650;48.106;-1.696;2022-10-17T04:28:27;15.10;;;5.20;;
22967;SDS011;11650;48.106;-1.696;2022-10-17T04:31:00;21.37;;;5.60;;
22967;SDS011;11650;48.106;-1.696;2022-10-17T04:33:35;11.03;;;5.47;;
22967;SDS011;11650;48.106;-1.696;2022-10-17T04:36:05;17.10;;;5.23;;
22967;SDS011;11650;48.106;-1.696;2022-10-17T04:38:38;14.57;;;4.93;;
22967;SDS011;11650;48.106;-1.696;2022-10-17T04:41:05;17.13;;;4.80;;
22967;SDS011;11650;48.106;-1.696;2022-10-17T04:43:34;13.00;;;4.60;;
22967;SDS011;11650;48.106;-1.696;2022-10-17T04:46:02;11.40;;;4.27;;
22967;SDS011;11650;48.106;-1.696;2022-10-17T04:48:29;15.60;;;4.70;;
22967;SDS011;11650;48.106;-1.696;2022-10-17T04:50:55;14.70;;;4.43;;
22967;SDS011;11650;48.106;-1.696;2022-10-17T04:53:24;11.43;;;3.90;;
22967;SDS011;11650;48.106;-1.696;2022-10-17T04:55:51;10.07;;;4.17;;
22967;SDS011;11650;48.106;-1.696;2022-10-17T04:58:17;12.20;;;4.10;;
22967;SDS011;11650;48.106;-1.696;2022-10-17T05:00:43;11.53;;;3.90;;
22967;SDS011;11650;48.106;-1.696;2022-10-17T05:03:09;10.73;;;3.60;;
22967;SDS011;11650;48.106;-1.696;2022-10-17T05:05:37;11.43;;;3.70;;
22967;SDS011;11650;48.106;-1.696;2022-10-17T05:08:07;14.80;;;3.90;;
22967;SDS011;11650;48.106;-1.696;2022-10-17T05:10:43;11.13;;;3.40;;
22967;SDS011;11650;48.106;-1.696;2022-10-17T05:13:12;9.90;;;3.50;;
22967;SDS011;11650;48.106;-1.696;2022-10-17T05:15:38;13.37;;;3.80;;
22967;SDS011;11650;48.106;-1.696;2022-10-17T05:18:04;13.40;;;3.83;;
22967;SDS011;11650;48.106;-1.696;2022-10-17T05:20:31;6.73;;;3.20;;
22967;SDS011;11650;48.106;-1.696;2022-10-17T05:22:58;11.60;;;3.60;;
22967;SDS011;11650;48.106;-1.696;2022-10-17T05:25:24;12.40;;;3.47;;
22967;SDS011;11650;48.106;-1.696;2022-10-17T05:27:49;10.60;;;3.87;;
22967;SDS011;11650;48.106;-1.696;2022-10-17T05:30:15;11.60;;;3.23;;
22967;SDS011;11650;48.106;-1.696;2022-10-17T05:32:41;10.03;;;2.90;;
22967;SDS011;11650;48.106;-1.696;2022-10-17T05:35:06;10.70;;;3.03;;
22967;SDS011;11650;48.106;-1.696;2022-10-17T05:37:32;9.50;;;3.30;;
22967;SDS011;11650;48.106;-1.696;2022-10-17T05:39:58;8.57;;;3.00;;
22967;SDS011;11650;48.106;-1.696;2022-10-17T05:42:23;8.93;;;3.70;;
22967;SDS011;11650;48.106;-1.696;2022-10-17T05:44:49;14.87;;;3.30;;
22967;SDS011;11650;48.106;-1.696;2022-10-17T05:47:15;15.57;;;3.80;;
22967;SDS011;11650;48.106;-1.696;2022-10-17T05:49:40;10.17;;;3.60;;
22967;SDS011;11650;48.106;-1.696;2022-10-17T05:52:06;13.07;;;3.60;;
22967;SDS011;11650;48.106;-1.696;2022-10-17T05:54:32;12.93;;;3.23;;
22967;SDS011;11650;48.106;-1.696;2022-10-17T05:56:57;9.33;;;3.10;;
22967;SDS011;11650;48.106;-1.696;2022-10-17T05:59:24;9.50;;;3.70;;
22967;SDS011;11650;48.106;-1.696;2022-10-17T06:01:50;9.83;;;3.40;;
22967;SDS011;11650;48.106;-1.696;2022-10-17T06:04:16;10.17;;;3.43;;
22967;SDS011;11650;48.106;-1.696;2022-10-17T06:06:42;9.40;;;3.30;;
22967;SDS011;11650;48.106;-1.696;2022-10-17T06:09:07;11.63;;;3.47;;
22967;SDS011;11650;48.106;-1.696;2022-10-17T06:11:33;8.93;;;3.27;;
22967;SDS011;11650;48.106;-1.696;2022-10-17T06:14:00;9.00;;;3.40;;
22967;SDS011;11650;48.106;-1.696;2022-10-17T06:16:25;11.63;;;3.60;;
22967;SDS011;11650;48.106;-1.696;2022-10-17T06:18:51;14.90;;;3.80;;
22967;SDS011;11650;48.106;-1.696;2022-10-17T06:21:19;8.23;;;3.13;;
22967;SDS011;11650;48.106;-1.696;2022-10-17T06:23:47;12.27;;;3.70;;
22967;SDS011;11650;48.106;-1.696;2022-10-17T06:26:13;16.93;;;3.80;;
22967;SDS011;11650;48.106;-1.696;2022-10-17T06:28:38;10.73;;;3.30;;
22967;SDS011;11650;48.106;-1.696;2022-10-17T06:31:08;12.27;;;3.97;;
22967;SDS011;11650;48.106;-1.696;2022-10-17T06:33:36;17.07;;;4.07;;
22967;SDS011;11650;48.106;-1.696;2022-10-17T06:36:02;11.67;;;3.80;;
22967;SDS011;11650;48.106;-1.696;2022-10-17T06:38:29;13.07;;;4.07;;
22967;SDS011;11650;48.106;-1.696;2022-10-17T06:41:02;12.53;;;3.43;;
22967;SDS011;11650;48.106;-1.696;2022-10-17T06:43:35;10.30;;;3.30;;
22967;SDS011;11650;48.106;-1.696;2022-10-17T06:46:01;12.60;;;3.30;;
22967;SDS011;11650;48.106;-1.696;2022-10-17T06:48:27;7.33;;;2.80;;
22967;SDS011;11650;48.106;-1.696;2022-10-17T06:50:53;9.50;;;2.53;;
22967;SDS011;11650;48.106;-1.696;2022-10-17T06:53:23;9.33;;;2.50;;
22967;SDS011;11650;48.106;-1.696;2022-10-17T06:55:54;7.90;;;2.27;;
22967;SDS011;11650;48.106;-1.696;2022-10-17T06:58:25;10.87;;;2.60;;
22967;SDS011;11650;48.106;-1.696;2022-10-17T07:00:56;10.40;;;2.57;;
22967;SDS011;11650;48.106;-1.696;2022-10-17T07:03:24;8.43;;;2.60;;
22967;SDS011;11650;48.106;-1.696;2022-10-17T07:05:51;5.63;;;2.20;;
22967;SDS011;11650;48.106;-1.696;2022-10-17T07:08:17;8.30;;;2.43;;
22967;SDS011;11650;48.106;-1.696;2022-10-17T07:10:43;8.13;;;2.47;;
22967;SDS011;11650;48.106;-1.696;2022-10-17T07:13:08;5.67;;;2.10;;
22967;SDS011;11650;48.106;-1.696;2022-10-17T07:15:35;9.70;;;2.37;;
22967;SDS011;11650;48.106;-1.696;2022-10-17T07:18:01;6.03;;;2.40;;
22967;SDS011;11650;48.106;-1.696;2022-10-17T07:20:29;10.60;;;2.30;;
22967;SDS011;11650;48.106;-1.696;2022-10-17T07:22:55;6.60;;;2.23;;
22967;SDS011;11650;48.106;-1.696;2022-10-17T07:25:22;8.77;;;2.10;;
22967;SDS011;11650;48.106;-1.696;2022-10-17T07:27:48;8.07;;;2.57;;
22967;SDS011;11650;48.106;-1.696;2022-10-17T07:30:14;11.07;;;2.10;;
22967;SDS011;11650;48.106;-1.696;2022-10-17T07:32:41;7.13;;;2.23;;
22967;SDS011;11650;48.106;-1.696;2022-10-17T07:35:07;10.23;;;2.20;;
22967;SDS011;11650;48.106;-1.696;2022-10-17T07:37:33;9.30;;;2.17;;
22967;SDS011;11650;48.106;-1.696;2022-10-17T07:39:59;6.77;;;2.17;;
22967;SDS011;11650;48.106;-1.696;2022-10-17T07:42:25;8.63;;;2.17;;
22967;SDS011;11650;48.106;-1.696;2022-10-17T07:44:52;8.57;;;1.90;;
22967;SDS011;11650;48.106;-1.696;2022-10-17T07:47:18;6.00;;;2.13;;
22967;SDS011;11650;48.106;-1.696;2022-10-17T07:49:44;5.47;;;1.83;;
22967;SDS011;11650;48.106;-1.696;2022-10-17T07:52:10;7.83;;;2.00;;
22967;SDS011;11650;48.106;-1.696;2022-10-17T07:54:36;7.47;;;1.90;;
22967;SDS011;11650;48.106;-1.696;2022-10-17T07:57:02;10.90;;;2.10;;
22967;SDS011;11650;48.106;-1.696;2022-10-17T07:59:28;9.80;;;2.30;;
22967;SDS011;11650;48.106;-1.696;2022-10-17T08:01:54;9.37;;;2.00;;
22967;SDS011;11650;48.106;-1.696;2022-10-17T08:04:20;6.20;;;2.10;;
22967;SDS011;11650;48.106;-1.696;2022-10-17T08:06:46;8.70;;;2.00;;
22967;SDS011;11650;48.106;-1.696;2022-10-17T08:09:11;8.57;;;2.10;;
22967;SDS011;11650;48.106;-1.696;2022-10-17T08:11:37;7.87;;;2.03;;
22967;SDS011;11650;48.106;-1.696;2022-10-17T08:14:03;7.63;;;2.03;;
22967;SDS011;11650;48.106;-1.696;2022-10-17T08:16:28;7.77;;;1.97;;
22967;SDS011;11650;48.106;-1.696;2022-10-17T08:18:54;9.67;;;1.70;;
22967;SDS011;11650;48.106;-1.696;2022-10-17T08:21:20;8.63;;;1.90;;
22967;SDS011;11650;48.106;-1.696;2022-10-17T08:23:46;10.10;;;2.03;;
22967;SDS011;11650;48.106;-1.696;2022-10-17T08:26:11;9.63;;;1.90;;
22967;SDS011;11650;48.106;-1.696;2022-10-17T08:28:40;9.67;;;1.70;;
22967;SDS011;11650;48.106;-1.696;2022-10-17T08:31:07;5.10;;;1.43;;
22967;SDS011;11650;48.106;-1.696;2022-10-17T08:33:35;6.03;;;1.80;;
22967;SDS011;11650;48.106;-1.696;2022-10-17T08:36:02;8.93;;;1.50;;
22967;SDS011;11650;48.106;-1.696;2022-10-17T08:38:29;6.77;;;1.40;;
22967;SDS011;11650;48.106;-1.696;2022-10-17T08:40:59;8.37;;;1.87;;
22967;SDS011;11650;48.106;-1.696;2022-10-17T08:43:30;6.70;;;1.37;;
22967;SDS011;11650;48.106;-1.696;2022-10-17T08:46:19;8.10;;;1.70;;
22967;SDS011;11650;48.106;-1.696;2022-10-17T08:48:45;6.63;;;1.40;;
22967;SDS011;11650;48.106;-1.696;2022-10-17T08:51:19;8.87;;;1.90;;
22967;SDS011;11650;48.106;-1.696;2022-10-17T08:53:56;9.63;;;1.60;;
22967;SDS011;11650;48.106;-1.696;2022-10-17T08:56:36;8.80;;;1.93;;
22967;SDS011;11650;48.106;-1.696;2022-10-17T08:59:16;7.47;;;1.77;;
22967;SDS011;11650;48.106;-1.696;2022-10-17T09:02:00;6.57;;;1.50;;
22967;SDS011;11650;48.106;-1.696;2022-10-17T09:10:29;4.47;;;1.10;;
22967;SDS011;11650;48.106;-1.696;2022-10-17T09:16:10;7.03;;;1.53;;
22967;SDS011;11650;48.106;-1.696;2022-10-17T09:19:08;9.03;;;1.50;;
22967;SDS011;11650;48.106;-1.696;2022-10-17T09:21:52;6.57;;;1.33;;
22967;SDS011;11650;48.106;-1.696;2022-10-17T09:27:23;8.70;;;1.60;;
22967;SDS011;11650;48.106;-1.696;2022-10-17T09:32:50;9.10;;;1.60;;
22967;SDS011;11650;48.106;-1.696;2022-10-17T09:35:16;6.17;;;1.60;;
22967;SDS011;11650;48.106;-1.696;2022-10-17T09:37:43;7.43;;;1.50;;
22967;SDS011;11650;48.106;-1.696;2022-10-17T09:43:05;7.13;;;1.67;;
22967;SDS011;11650;48.106;-1.696;2022-10-17T09:45:37;7.97;;;1.37;;
22967;SDS011;11650;48.106;-1.696;2022-10-17T09:48:25;7.63;;;1.93;;
22967;SDS011;11650;48.106;-1.696;2022-10-17T09:51:00;8.40;;;1.60;;
22967;SDS011;11650;48.106;-1.696;2022-10-17T09:53:32;7.77;;;1.60;;
22967;SDS011;11650;48.106;-1.696;2022-10-17T09:56:05;8.47;;;1.60;;
22967;SDS011;11650;48.106;-1.696;2022-10-17T09:59:08;7.80;;;1.63;;
22967;SDS011;11650;48.106;-1.696;2022-10-17T10:01:27;7.63;;;1.33;;
22967;SDS011;11650;48.106;-1.696;2022-10-17T10:04:11;9.47;;;1.70;;
22967;SDS011;11650;48.106;-1.696;2022-10-17T10:06:38;10.37;;;1.83;;
22967;SDS011;11650;48.106;-1.696;2022-10-17T10:09:04;6.50;;;1.70;;
22967;SDS011;11650;48.106;-1.696;2022-10-17T10:14:44;11.53;;;2.00;;
22967;SDS011;11650;48.106;-1.696;2022-10-17T10:17:05;8.23;;;1.70;;
22967;SDS011;11650;48.106;-1.696;2022-10-17T10:19:49;11.90;;;1.67;;
22967;SDS011;11650;48.106;-1.696;2022-10-17T10:22:16;7.13;;;1.50;;
22967;SDS011;11650;48.106;-1.696;2022-10-17T10:24:43;8.73;;;1.87;;
22967;SDS011;11650;48.106;-1.696;2022-10-17T10:27:13;9.50;;;1.43;;
22967;SDS011;11650;48.106;-1.696;2022-10-17T10:29:50;12.10;;;1.67;;
22967;SDS011;11650;48.106;-1.696;2022-10-17T10:40:13;6.30;;;1.60;;
22967;SDS011;11650;48.106;-1.696;2022-10-17T10:42:57;9.73;;;1.70;;
22967;SDS011;11650;48.106;-1.696;2022-10-17T10:45:25;7.27;;;1.80;;
22967;SDS011;11650;48.106;-1.696;2022-10-17T10:47:53;7.90;;;1.60;;
22967;SDS011;11650;48.106;-1.696;2022-10-17T10:50:28;8.93;;;1.57;;
22967;SDS011;11650;48.106;-1.696;2022-10-17T10:53:06;10.20;;;1.70;;
22967;SDS011;11650;48.106;-1.696;2022-10-17T11:00:55;10.60;;;1.83;;
22967;SDS011;11650;48.106;-1.696;2022-10-17T11:03:39;6.20;;;1.37;;
22967;SDS011;11650;48.106;-1.696;2022-10-17T11:06:22;7.80;;;1.47;;
22967;SDS011;11650;48.106;-1.696;2022-10-17T11:09:15;6.23;;;1.50;;
22967;SDS011;11650;48.106;-1.696;2022-10-17T11:11:53;5.83;;;1.50;;
22967;SDS011;11650;48.106;-1.696;2022-10-17T11:22:54;6.17;;;1.40;;
22967;SDS011;11650;48.106;-1.696;2022-10-17T11:28:01;7.10;;;1.50;;
22967;SDS011;11650;48.106;-1.696;2022-10-17T11:36:17;8.20;;;1.40;;
22967;SDS011;11650;48.106;-1.696;2022-10-17T11:38:56;4.67;;;1.20;;
22967;SDS011;11650;48.106;-1.696;2022-10-17T11:41:36;7.07;;;1.47;;
22967;SDS011;11650;48.106;-1.696;2022-10-17T11:44:22;4.60;;;1.33;;
22967;SDS011;11650;48.106;-1.696;2022-10-17T11:47:09;5.30;;;1.00;;
22967;SDS011;11650;48.106;-1.696;2022-10-17T11:49:36;5.20;;;1.10;;
22967;SDS011;11650;48.106;-1.696;2022-10-17T11:55:18;8.33;;;1.17;;
22967;SDS011;11650;48.106;-1.696;2022-10-17T12:03:11;6.90;;;1.20;;
22967;SDS011;11650;48.106;-1.696;2022-10-17T12:12:02;8.00;;;1.40;;
22967;SDS011;11650;48.106;-1.696;2022-10-17T12:25:20;8.03;;;1.80;;
22967;SDS011;11650;48.106;-1.696;2022-10-17T12:30:32;11.10;;;1.50;;
22967;SDS011;11650;48.106;-1.696;2022-10-17T12:33:03;6.93;;;1.50;;
22967;SDS011;11650;48.106;-1.696;2022-10-17T12:35:38;8.63;;;1.33;;
22967;SDS011;11650;48.106;-1.696;2022-10-17T12:43:50;9.73;;;1.37;;
22967;SDS011;11650;48.106;-1.696;2022-10-17T12:46:09;7.10;;;1.30;;
22967;SDS011;11650;48.106;-1.696;2022-10-17T12:56:17;4.37;;;1.20;;
22967;SDS011;11650;48.106;-1.696;2022-10-17T12:58:45;4.60;;;1.23;;
22967;SDS011;11650;48.106;-1.696;2022-10-17T13:01:20;7.53;;;1.20;;
22967;SDS011;11650;48.106;-1.696;2022-10-17T13:03:51;5.93;;;1.10;;
22967;SDS011;11650;48.106;-1.696;2022-10-17T13:06:19;4.30;;;0.93;;
22967;SDS011;11650;48.106;-1.696;2022-10-17T13:08:48;6.80;;;1.30;;
22967;SDS011;11650;48.106;-1.696;2022-10-17T13:11:22;8.20;;;1.30;;
22967;SDS011;11650;48.106;-1.696;2022-10-17T13:13:52;7.67;;;1.20;;
22967;SDS011;11650;48.106;-1.696;2022-10-17T13:18:52;8.37;;;1.70;;
22967;SDS011;11650;48.106;-1.696;2022-10-17T13:21:18;5.93;;;1.17;;
22967;SDS011;11650;48.106;-1.696;2022-10-17T13:23:45;4.87;;;1.30;;
22967;SDS011;11650;48.106;-1.696;2022-10-17T13:26:14;5.80;;;1.40;;
22967;SDS011;11650;48.106;-1.696;2022-10-17T13:29:04;5.57;;;1.20;;
22967;SDS011;11650;48.106;-1.696;2022-10-17T13:31:39;6.70;;;1.30;;
22967;SDS011;11650;48.106;-1.696;2022-10-17T13:34:22;5.30;;;1.30;;
22967;SDS011;11650;48.106;-1.696;2022-10-17T13:36:53;6.87;;;1.50;;
22967;SDS011;11650;48.106;-1.696;2022-10-17T13:39:22;6.90;;;1.53;;
22967;SDS011;11650;48.106;-1.696;2022-10-17T13:41:50;6.43;;;1.30;;
22967;SDS011;11650;48.106;-1.696;2022-10-17T13:44:18;8.03;;;1.40;;
22967;SDS011;11650;48.106;-1.696;2022-10-17T13:46:46;4.83;;;1.30;;
22967;SDS011;11650;48.106;-1.696;2022-10-17T13:49:22;5.60;;;1.33;;
22967;SDS011;11650;48.106;-1.696;2022-10-17T13:51:58;6.27;;;1.27;;
22967;SDS011;11650;48.106;-1.696;2022-10-17T13:56:57;7.80;;;1.80;;
22967;SDS011;11650;48.106;-1.696;2022-10-17T13:59:25;8.57;;;1.60;;
22967;SDS011;11650;48.106;-1.696;2022-10-17T14:01:55;8.90;;;1.90;;
22967;SDS011;11650;48.106;-1.696;2022-10-17T14:04:21;4.30;;;1.60;;
22967;SDS011;11650;48.106;-1.696;2022-10-17T14:06:47;5.27;;;1.73;;
22967;SDS011;11650;48.106;-1.696;2022-10-17T14:09:19;8.40;;;3.33;;
22967;SDS011;11650;48.106;-1.696;2022-10-17T14:12:01;6.23;;;2.50;;
22967;SDS011;11650;48.106;-1.696;2022-10-17T14:14:32;8.57;;;2.63;;
22967;SDS011;11650;48.106;-1.696;2022-10-17T14:16:58;9.40;;;2.43;;
22967;SDS011;11650;48.106;-1.696;2022-10-17T14:19:31;9.50;;;2.40;;
22967;SDS011;11650;48.106;-1.696;2022-10-17T14:22:16;7.93;;;1.70;;
22967;SDS011;11650;48.106;-1.696;2022-10-17T14:24:45;9.47;;;2.53;;
22967;SDS011;11650;48.106;-1.696;2022-10-17T14:27:31;12.70;;;5.03;;
22967;SDS011;11650;48.106;-1.696;2022-10-17T14:30:04;18.10;;;7.90;;
22967;SDS011;11650;48.106;-1.696;2022-10-17T14:32:51;17.70;;;7.83;;
22967;SDS011;11650;48.106;-1.696;2022-10-17T14:35:20;17.97;;;7.83;;
22967;SDS011;11650;48.106;-1.696;2022-10-17T14:37:47;16.67;;;7.90;;
22967;SDS011;11650;48.106;-1.696;2022-10-17T14:40:16;16.87;;;7.17;;
22967;SDS011;11650;48.106;-1.696;2022-10-17T14:42:47;13.50;;;6.90;;
22967;SDS011;11650;48.106;-1.696;2022-10-17T14:45:16;13.47;;;6.20;;
22967;SDS011;11650;48.106;-1.696;2022-10-17T14:47:54;20.03;;;8.30;;
22967;SDS011;11650;48.106;-1.696;2022-10-17T14:50:23;15.10;;;6.27;;
22967;SDS011;11650;48.106;-1.696;2022-10-17T14:53:04;12.60;;;5.73;;
22967;SDS011;11650;48.106;-1.696;2022-10-17T14:55:32;9.30;;;3.40;;
22967;SDS011;11650;48.106;-1.696;2022-10-17T14:57:59;10.57;;;3.10;;
22967;SDS011;11650;48.106;-1.696;2022-10-17T15:00:25;8.60;;;3.00;;
22967;SDS011;11650;48.106;-1.696;2022-10-17T15:05:17;7.40;;;2.60;;
22967;SDS011;11650;48.106;-1.696;2022-10-17T15:07:44;7.60;;;2.50;;
22967;SDS011;11650;48.106;-1.696;2022-10-17T15:12:59;6.30;;;2.03;;
22967;SDS011;11650;48.106;-1.696;2022-10-17T15:15:26;7.43;;;2.30;;
22967;SDS011;11650;48.106;-1.696;2022-10-17T15:17:55;7.80;;;2.10;;
22967;SDS011;11650;48.106;-1.696;2022-10-17T15:20:22;5.80;;;2.43;;
22967;SDS011;11650;48.106;-1.696;2022-10-17T15:22:52;7.47;;;2.70;;
22967;SDS011;11650;48.106;-1.696;2022-10-17T15:25:19;7.17;;;2.70;;
22967;SDS011;11650;48.106;-1.696;2022-10-17T15:27:45;9.00;;;2.87;;
22967;SDS011;11650;48.106;-1.696;2022-10-17T15:30:18;12.57;;;3.10;;
22967;SDS011;11650;48.106;-1.696;2022-10-17T15:32:53;10.23;;;2.50;;
22967;SDS011;11650;48.106;-1.696;2022-10-17T15:35:19;9.37;;;2.20;;
22967;SDS011;11650;48.106;-1.696;2022-10-17T15:37:46;9.23;;;2.50;;
22967;SDS011;11650;48.106;-1.696;2022-10-17T15:40:12;7.00;;;2.20;;
22967;SDS011;11650;48.106;-1.696;2022-10-17T15:42:43;7.93;;;2.43;;
22967;SDS011;11650;48.106;-1.696;2022-10-17T15:45:10;8.80;;;2.67;;
22967;SDS011;11650;48.106;-1.696;2022-10-17T15:47:36;10.23;;;2.60;;
22967;SDS011;11650;48.106;-1.696;2022-10-17T15:50:04;9.17;;;2.60;;
22967;SDS011;11650;48.106;-1.696;2022-10-17T15:52:30;8.17;;;2.40;;
22967;SDS011;11650;48.106;-1.696;2022-10-17T15:54:56;10.33;;;2.50;;
22967;SDS011;11650;48.106;-1.696;2022-10-17T15:57:30;7.37;;;2.47;;
22967;SDS011;11650;48.106;-1.696;2022-10-17T15:59:59;8.20;;;2.87;;
22967;SDS011;11650;48.106;-1.696;2022-10-17T16:02:25;8.53;;;2.43;;
22967;SDS011;11650;48.106;-1.696;2022-10-17T16:04:51;10.47;;;2.90;;
22967;SDS011;11650;48.106;-1.696;2022-10-17T16:07:18;7.20;;;2.30;;
22967;SDS011;11650;48.106;-1.696;2022-10-17T16:09:44;6.90;;;2.63;;
22967;SDS011;11650;48.106;-1.696;2022-10-17T16:12:12;9.13;;;2.73;;
22967;SDS011;11650;48.106;-1.696;2022-10-17T16:14:41;7.50;;;2.50;;
22967;SDS011;11650;48.106;-1.696;2022-10-17T16:17:11;9.50;;;3.20;;
22967;SDS011;11650;48.106;-1.696;2022-10-17T16:19:38;6.57;;;2.97;;
22967;SDS011;11650;48.106;-1.696;2022-10-17T16:22:04;9.80;;;3.50;;
22967;SDS011;11650;48.106;-1.696;2022-10-17T16:24:30;11.17;;;3.40;;
22967;SDS011;11650;48.106;-1.696;2022-10-17T16:26:56;12.13;;;3.50;;
22967;SDS011;11650;48.106;-1.696;2022-10-17T16:29:22;10.37;;;3.27;;
22967;SDS011;11650;48.106;-1.696;2022-10-17T16:31:48;6.47;;;2.83;;
22967;SDS011;11650;48.106;-1.696;2022-10-17T16:34:14;6.47;;;3.10;;
22967;SDS011;11650;48.106;-1.696;2022-10-17T16:36:40;8.27;;;3.43;;
22967;SDS011;11650;48.106;-1.696;2022-10-17T16:39:06;9.80;;;3.20;;
22967;SDS011;11650;48.106;-1.696;2022-10-17T16:41:33;10.33;;;3.60;;
22967;SDS011;11650;48.106;-1.696;2022-10-17T16:44:02;7.13;;;3.00;;
22967;SDS011;11650;48.106;-1.696;2022-10-17T16:46:30;12.77;;;3.43;;
22967;SDS011;11650;48.106;-1.696;2022-10-17T16:48:57;8.60;;;3.30;;
22967;SDS011;11650;48.106;-1.696;2022-10-17T16:51:23;10.83;;;3.40;;
22967;SDS011;11650;48.106;-1.696;2022-10-17T16:53:50;8.50;;;3.20;;
22967;SDS011;11650;48.106;-1.696;2022-10-17T16:56:19;10.60;;;3.60;;